sensor_id;sensor_type;location;lat;lon;timestamp;P1;durP1;ratioP1;P2;durP2;ratioP2
83471;SDS011;74051;47.120;18.370;2023-12-04T00:01:12;16.92;;;7.30;;
83471;SDS011;74051;47.120;18.370;2023-12-04T00:03:38;14.98;;;6.57;;
83471;SDS011;74051;47.120;18.370;2023-12-04T00:06:04;16.90;;;8.48;;
83471;SDS011;74051;47.120;18.370;2023-12-04T00:08:32;20.23;;;8.15;;
83471;SDS011;74051;47.120;18.370;2023-12-04T00:10:58;21.42;;;8.50;;
83471;SDS011;74051;47.120;18.370;2023-12-04T00:13:25;14.27;;;7.38;;
83471;SDS011;74051;47.120;18.370;2023-12-04T00:15:51;15.70;;;7.47;;
83471;SDS011;74051;47.120;18.370;2023-12-04T00:18:18;13.30;;;5.97;;
83471;SDS011;74051;47.120;18.370;2023-12-04T00:20:44;12.93;;;6.28;;
83471;SDS011;74051;47.120;18.370;2023-12-04T00:23:11;12.70;;;6.60;;
83471;SDS011;74051;47.120;18.370;2023-12-04T00:25:37;13.90;;;6.03;;
83471;SDS011;74051;47.120;18.370;2023-12-04T00:28:03;17.58;;;6.32;;
83471;SDS011;74051;47.120;18.370;2023-12-04T00:30:29;15.68;;;6.63;;
83471;SDS011;74051;47.120;18.370;2023-12-04T00:32:56;12.50;;;5.82;;
83471;SDS011;74051;47.120;18.370;2023-12-04T00:35:22;11.25;;;4.90;;
83471;SDS011;74051;47.120;18.370;2023-12-04T00:37:48;10.05;;;5.13;;
83471;SDS011;74051;47.120;18.370;2023-12-04T00:40:15;10.88;;;5.18;;
83471;SDS011;74051;47.120;18.370;2023-12-04T00:42:41;14.50;;;6.10;;
83471;SDS011;74051;47.120;18.370;2023-12-04T00:45:07;13.15;;;5.68;;
83471;SDS011;74051;47.120;18.370;2023-12-04T00:47:34;13.60;;;6.00;;
83471;SDS011;74051;47.120;18.370;2023-12-04T00:50:01;15.57;;;6.50;;
83471;SDS011;74051;47.120;18.370;2023-12-04T00:52:27;14.18;;;5.90;;
83471;SDS011;74051;47.120;18.370;2023-12-04T00:54:54;12.55;;;5.47;;
83471;SDS011;74051;47.120;18.370;2023-12-04T00:57:20;11.32;;;5.68;;
83471;SDS011;74051;47.120;18.370;2023-12-04T00:59:47;13.68;;;6.68;;
83471;SDS011;74051;47.120;18.370;2023-12-04T01:02:13;12.30;;;6.60;;
83471;SDS011;74051;47.120;18.370;2023-12-04T01:04:40;13.50;;;6.07;;
83471;SDS011;74051;47.120;18.370;2023-12-04T01:07:07;12.10;;;5.97;;
83471;SDS011;74051;47.120;18.370;2023-12-04T01:09:37;12.00;;;6.25;;
83471;SDS011;74051;47.120;18.370;2023-12-04T01:12:04;13.05;;;6.78;;
83471;SDS011;74051;47.120;18.370;2023-12-04T01:14:30;9.95;;;5.65;;
83471;SDS011;74051;47.120;18.370;2023-12-04T01:16:57;15.57;;;6.70;;
83471;SDS011;74051;47.120;18.370;2023-12-04T01:19:23;12.18;;;6.50;;
83471;SDS011;74051;47.120;18.370;2023-12-04T01:21:49;14.52;;;6.15;;
83471;SDS011;74051;47.120;18.370;2023-12-04T01:24:16;17.80;;;6.88;;
83471;SDS011;74051;47.120;18.370;2023-12-04T01:26:42;15.55;;;6.72;;
83471;SDS011;74051;47.120;18.370;2023-12-04T01:29:08;12.52;;;6.10;;
83471;SDS011;74051;47.120;18.370;2023-12-04T01:31:35;8.35;;;4.22;;
83471;SDS011;74051;47.120;18.370;2023-12-04T01:34:01;14.07;;;5.95;;
83471;SDS011;74051;47.120;18.370;2023-12-04T01:36:28;14.73;;;6.57;;
83471;SDS011;74051;47.120;18.370;2023-12-04T01:38:54;16.70;;;8.27;;
83471;SDS011;74051;47.120;18.370;2023-12-04T01:41:21;17.08;;;8.55;;
83471;SDS011;74051;47.120;18.370;2023-12-04T01:43:47;16.65;;;7.68;;
83471;SDS011;74051;47.120;18.370;2023-12-04T01:46:13;17.17;;;7.75;;
83471;SDS011;74051;47.120;18.370;2023-12-04T01:48:44;17.88;;;8.13;;
83471;SDS011;74051;47.120;18.370;2023-12-04T01:51:11;18.00;;;8.23;;
83471;SDS011;74051;47.120;18.370;2023-12-04T01:53:39;16.42;;;7.68;;
83471;SDS011;74051;47.120;18.370;2023-12-04T01:56:06;18.25;;;8.15;;
83471;SDS011;74051;47.120;18.370;2023-12-04T01:58:33;17.42;;;7.65;;
83471;SDS011;74051;47.120;18.370;2023-12-04T02:01:00;15.23;;;7.57;;
83471;SDS011;74051;47.120;18.370;2023-12-04T02:03:27;14.27;;;6.90;;
83471;SDS011;74051;47.120;18.370;2023-12-04T02:05:54;18.02;;;8.85;;
83471;SDS011;74051;47.120;18.370;2023-12-04T02:08:20;15.40;;;6.88;;
83471;SDS011;74051;47.120;18.370;2023-12-04T02:10:47;11.73;;;6.20;;
83471;SDS011;74051;47.120;18.370;2023-12-04T02:13:13;18.88;;;7.85;;
83471;SDS011;74051;47.120;18.370;2023-12-04T02:15:40;18.05;;;7.03;;
83471;SDS011;74051;47.120;18.370;2023-12-04T02:18:07;9.40;;;5.00;;
83471;SDS011;74051;47.120;18.370;2023-12-04T02:20:33;12.63;;;6.40;;
83471;SDS011;74051;47.120;18.370;2023-12-04T02:23:00;15.95;;;7.45;;
83471;SDS011;74051;47.120;18.370;2023-12-04T02:25:30;18.08;;;7.20;;
83471;SDS011;74051;47.120;18.370;2023-12-04T02:27:59;16.67;;;7.60;;
83471;SDS011;74051;47.120;18.370;2023-12-04T02:30:28;14.80;;;7.15;;
83471;SDS011;74051;47.120;18.370;2023-12-04T02:32:57;15.07;;;6.60;;
83471;SDS011;74051;47.120;18.370;2023-12-04T02:35:26;16.83;;;7.40;;
83471;SDS011;74051;47.120;18.370;2023-12-04T02:37:55;40.40;;;11.35;;
83471;SDS011;74051;47.120;18.370;2023-12-04T02:40:21;36.30;;;10.23;;
83471;SDS011;74051;47.120;18.370;2023-12-04T02:42:48;30.38;;;10.18;;
83471;SDS011;74051;47.120;18.370;2023-12-04T02:45:14;22.15;;;9.05;;
83471;SDS011;74051;47.120;18.370;2023-12-04T02:47:40;17.02;;;5.97;;
83471;SDS011;74051;47.120;18.370;2023-12-04T02:50:07;13.98;;;6.35;;
83471;SDS011;74051;47.120;18.370;2023-12-04T02:52:34;18.48;;;7.18;;
83471;SDS011;74051;47.120;18.370;2023-12-04T02:55:01;22.13;;;9.82;;
83471;SDS011;74051;47.120;18.370;2023-12-04T02:57:27;20.95;;;8.50;;
83471;SDS011;74051;47.120;18.370;2023-12-04T02:59:53;19.75;;;8.75;;
83471;SDS011;74051;47.120;18.370;2023-12-04T03:02:20;19.05;;;8.50;;
83471;SDS011;74051;47.120;18.370;2023-12-04T03:04:46;16.27;;;7.90;;
83471;SDS011;74051;47.120;18.370;2023-12-04T03:07:13;17.92;;;7.40;;
83471;SDS011;74051;47.120;18.370;2023-12-04T03:09:39;14.93;;;7.90;;
83471;SDS011;74051;47.120;18.370;2023-12-04T03:12:05;17.67;;;7.50;;
83471;SDS011;74051;47.120;18.370;2023-12-04T03:14:31;16.42;;;6.93;;
83471;SDS011;74051;47.120;18.370;2023-12-04T03:16:58;17.15;;;7.28;;
83471;SDS011;74051;47.120;18.370;2023-12-04T03:19:24;16.58;;;7.50;;
83471;SDS011;74051;47.120;18.370;2023-12-04T03:21:51;19.75;;;7.60;;
83471;SDS011;74051;47.120;18.370;2023-12-04T03:24:17;20.27;;;7.63;;
83471;SDS011;74051;47.120;18.370;2023-12-04T03:26:43;17.58;;;7.65;;
83471;SDS011;74051;47.120;18.370;2023-12-04T03:29:10;9.05;;;5.47;;
83471;SDS011;74051;47.120;18.370;2023-12-04T03:31:36;17.52;;;7.35;;
83471;SDS011;74051;47.120;18.370;2023-12-04T03:34:04;16.25;;;7.65;;
83471;SDS011;74051;47.120;18.370;2023-12-04T03:36:31;14.38;;;7.13;;
83471;SDS011;74051;47.120;18.370;2023-12-04T03:38:57;17.63;;;7.68;;
83471;SDS011;74051;47.120;18.370;2023-12-04T03:41:24;13.40;;;7.32;;
83471;SDS011;74051;47.120;18.370;2023-12-04T03:43:50;12.77;;;7.18;;
83471;SDS011;74051;47.120;18.370;2023-12-04T03:46:17;15.30;;;7.30;;
83471;SDS011;74051;47.120;18.370;2023-12-04T03:48:43;18.70;;;8.57;;
83471;SDS011;74051;47.120;18.370;2023-12-04T03:51:09;14.32;;;7.85;;
83471;SDS011;74051;47.120;18.370;2023-12-04T03:53:36;16.10;;;7.65;;
83471;SDS011;74051;47.120;18.370;2023-12-04T03:56:02;16.98;;;7.57;;
83471;SDS011;74051;47.120;18.370;2023-12-04T03:58:28;13.77;;;7.13;;
83471;SDS011;74051;47.120;18.370;2023-12-04T04:00:55;18.98;;;7.20;;
83471;SDS011;74051;47.120;18.370;2023-12-04T04:03:21;13.13;;;6.82;;
83471;SDS011;74051;47.120;18.370;2023-12-04T04:05:48;18.40;;;7.80;;
83471;SDS011;74051;47.120;18.370;2023-12-04T04:08:14;15.70;;;6.85;;
83471;SDS011;74051;47.120;18.370;2023-12-04T04:10:41;15.73;;;7.55;;
83471;SDS011;74051;47.120;18.370;2023-12-04T04:13:07;23.45;;;6.88;;
83471;SDS011;74051;47.120;18.370;2023-12-04T04:15:34;16.05;;;6.82;;
83471;SDS011;74051;47.120;18.370;2023-12-04T04:18:00;18.90;;;6.75;;
83471;SDS011;74051;47.120;18.370;2023-12-04T04:20:26;19.98;;;8.45;;
83471;SDS011;74051;47.120;18.370;2023-12-04T04:22:53;20.80;;;8.40;;
83471;SDS011;74051;47.120;18.370;2023-12-04T04:25:20;21.50;;;9.27;;
83471;SDS011;74051;47.120;18.370;2023-12-04T04:27:48;18.88;;;8.27;;
83471;SDS011;74051;47.120;18.370;2023-12-04T04:30:15;19.48;;;8.18;;
83471;SDS011;74051;47.120;18.370;2023-12-04T04:32:42;17.95;;;7.75;;
83471;SDS011;74051;47.120;18.370;2023-12-04T04:35:08;14.98;;;7.40;;
83471;SDS011;74051;47.120;18.370;2023-12-04T04:37:34;17.35;;;7.43;;
83471;SDS011;74051;47.120;18.370;2023-12-04T04:40:01;15.73;;;7.35;;
83471;SDS011;74051;47.120;18.370;2023-12-04T04:42:28;19.48;;;8.57;;
83471;SDS011;74051;47.120;18.370;2023-12-04T04:44:54;23.90;;;9.45;;
83471;SDS011;74051;47.120;18.370;2023-12-04T04:47:20;18.88;;;8.25;;
83471;SDS011;74051;47.120;18.370;2023-12-04T04:49:46;14.88;;;7.32;;
83471;SDS011;74051;47.120;18.370;2023-12-04T04:52:13;17.83;;;9.20;;
83471;SDS011;74051;47.120;18.370;2023-12-04T04:54:39;26.25;;;12.07;;
83471;SDS011;74051;47.120;18.370;2023-12-04T04:57:06;24.67;;;10.57;;
83471;SDS011;74051;47.120;18.370;2023-12-04T04:59:32;20.58;;;8.77;;
83471;SDS011;74051;47.120;18.370;2023-12-04T05:01:59;22.98;;;9.30;;
83471;SDS011;74051;47.120;18.370;2023-12-04T05:04:25;15.65;;;7.80;;
83471;SDS011;74051;47.120;18.370;2023-12-04T05:06:52;16.20;;;7.55;;
83471;SDS011;74051;47.120;18.370;2023-12-04T05:09:18;21.13;;;8.63;;
83471;SDS011;74051;47.120;18.370;2023-12-04T05:11:44;20.10;;;8.85;;
83471;SDS011;74051;47.120;18.370;2023-12-04T05:14:10;18.17;;;8.02;;
83471;SDS011;74051;47.120;18.370;2023-12-04T05:16:37;13.13;;;6.93;;
83471;SDS011;74051;47.120;18.370;2023-12-04T05:19:03;15.38;;;7.40;;
83471;SDS011;74051;47.120;18.370;2023-12-04T05:21:29;20.77;;;9.32;;
83471;SDS011;74051;47.120;18.370;2023-12-04T05:23:56;21.02;;;8.52;;
83471;SDS011;74051;47.120;18.370;2023-12-04T05:26:22;21.73;;;10.32;;
83471;SDS011;74051;47.120;18.370;2023-12-04T05:28:48;21.88;;;8.50;;
83471;SDS011;74051;47.120;18.370;2023-12-04T05:31:15;14.15;;;7.15;;
83471;SDS011;74051;47.120;18.370;2023-12-04T05:33:41;19.50;;;8.02;;
83471;SDS011;74051;47.120;18.370;2023-12-04T05:36:08;17.48;;;8.18;;
83471;SDS011;74051;47.120;18.370;2023-12-04T05:38:35;22.75;;;9.73;;
83471;SDS011;74051;47.120;18.370;2023-12-04T05:41:01;18.25;;;9.68;;
83471;SDS011;74051;47.120;18.370;2023-12-04T05:43:27;51.95;;;17.67;;
83471;SDS011;74051;47.120;18.370;2023-12-04T05:45:53;51.10;;;21.30;;
83471;SDS011;74051;47.120;18.370;2023-12-04T05:48:20;24.20;;;9.75;;
83471;SDS011;74051;47.120;18.370;2023-12-04T05:50:46;20.83;;;9.98;;
83471;SDS011;74051;47.120;18.370;2023-12-04T05:53:13;19.27;;;9.50;;
83471;SDS011;74051;47.120;18.370;2023-12-04T05:55:39;25.67;;;12.38;;
83471;SDS011;74051;47.120;18.370;2023-12-04T05:58:06;27.75;;;12.90;;
83471;SDS011;74051;47.120;18.370;2023-12-04T06:00:32;25.10;;;11.35;;
83471;SDS011;74051;47.120;18.370;2023-12-04T06:02:59;45.88;;;17.05;;
83471;SDS011;74051;47.120;18.370;2023-12-04T06:05:25;74.95;;;25.48;;
83471;SDS011;74051;47.120;18.370;2023-12-04T06:07:52;38.42;;;15.45;;
83471;SDS011;74051;47.120;18.370;2023-12-04T06:10:18;84.63;;;27.50;;
83471;SDS011;74051;47.120;18.370;2023-12-04T06:12:44;80.57;;;22.13;;
83471;SDS011;74051;47.120;18.370;2023-12-04T06:15:11;60.42;;;23.70;;
83471;SDS011;74051;47.120;18.370;2023-12-04T06:17:37;71.18;;;26.83;;
83471;SDS011;74051;47.120;18.370;2023-12-04T06:20:04;52.50;;;23.65;;
83471;SDS011;74051;47.120;18.370;2023-12-04T06:22:32;41.42;;;18.13;;
83471;SDS011;74051;47.120;18.370;2023-12-04T06:24:59;31.15;;;12.27;;
83471;SDS011;74051;47.120;18.370;2023-12-04T06:27:25;15.30;;;8.18;;
83471;SDS011;74051;47.120;18.370;2023-12-04T06:29:52;15.90;;;7.60;;
83471;SDS011;74051;47.120;18.370;2023-12-04T06:32:18;23.58;;;11.90;;
83471;SDS011;74051;47.120;18.370;2023-12-04T06:34:45;32.88;;;14.70;;
83471;SDS011;74051;47.120;18.370;2023-12-04T06:37:13;49.25;;;21.10;;
83471;SDS011;74051;47.120;18.370;2023-12-04T06:39:40;45.85;;;16.85;;
83471;SDS011;74051;47.120;18.370;2023-12-04T06:42:07;51.13;;;19.60;;
83471;SDS011;74051;47.120;18.370;2023-12-04T06:44:34;89.28;;;32.75;;
83471;SDS011;74051;47.120;18.370;2023-12-04T06:47:01;27.30;;;11.05;;
83471;SDS011;74051;47.120;18.370;2023-12-04T06:49:31;46.28;;;19.92;;
83471;SDS011;74051;47.120;18.370;2023-12-04T06:51:59;24.52;;;11.27;;
83471;SDS011;74051;47.120;18.370;2023-12-04T06:54:26;22.83;;;10.90;;
83471;SDS011;74051;47.120;18.370;2023-12-04T06:56:53;15.45;;;9.10;;
83471;SDS011;74051;47.120;18.370;2023-12-04T06:59:20;17.50;;;8.60;;
83471;SDS011;74051;47.120;18.370;2023-12-04T07:01:46;30.77;;;13.43;;
83471;SDS011;74051;47.120;18.370;2023-12-04T07:04:13;26.73;;;11.90;;
83471;SDS011;74051;47.120;18.370;2023-12-04T07:06:39;26.40;;;12.95;;
83471;SDS011;74051;47.120;18.370;2023-12-04T07:09:06;25.25;;;12.60;;
83471;SDS011;74051;47.120;18.370;2023-12-04T07:11:36;33.42;;;13.80;;
83471;SDS011;74051;47.120;18.370;2023-12-04T07:14:02;31.13;;;15.10;;
83471;SDS011;74051;47.120;18.370;2023-12-04T07:16:29;29.27;;;13.48;;
83471;SDS011;74051;47.120;18.370;2023-12-04T07:18:56;23.80;;;10.10;;
83471;SDS011;74051;47.120;18.370;2023-12-04T07:21:22;17.27;;;8.85;;
83471;SDS011;74051;47.120;18.370;2023-12-04T07:23:49;26.83;;;11.73;;
83471;SDS011;74051;47.120;18.370;2023-12-04T07:26:15;21.15;;;10.85;;
83471;SDS011;74051;47.120;18.370;2023-12-04T07:28:42;43.10;;;24.17;;
83471;SDS011;74051;47.120;18.370;2023-12-04T07:31:08;19.50;;;10.32;;
83471;SDS011;74051;47.120;18.370;2023-12-04T07:33:35;21.73;;;9.70;;
83471;SDS011;74051;47.120;18.370;2023-12-04T07:36:01;18.35;;;9.20;;
83471;SDS011;74051;47.120;18.370;2023-12-04T07:38:27;22.23;;;10.88;;
83471;SDS011;74051;47.120;18.370;2023-12-04T07:40:53;23.58;;;11.25;;
83471;SDS011;74051;47.120;18.370;2023-12-04T07:43:20;19.08;;;10.43;;
83471;SDS011;74051;47.120;18.370;2023-12-04T07:45:46;24.83;;;10.90;;
83471;SDS011;74051;47.120;18.370;2023-12-04T07:48:13;25.45;;;11.40;;
83471;SDS011;74051;47.120;18.370;2023-12-04T07:50:39;27.33;;;12.70;;
83471;SDS011;74051;47.120;18.370;2023-12-04T07:53:05;26.45;;;10.77;;
83471;SDS011;74051;47.120;18.370;2023-12-04T07:55:34;33.97;;;13.52;;
83471;SDS011;74051;47.120;18.370;2023-12-04T07:58:00;18.50;;;10.57;;
83471;SDS011;74051;47.120;18.370;2023-12-04T08:00:27;19.17;;;9.43;;
83471;SDS011;74051;47.120;18.370;2023-12-04T08:02:53;21.30;;;11.10;;
83471;SDS011;74051;47.120;18.370;2023-12-04T08:05:19;23.60;;;12.27;;
83471;SDS011;74051;47.120;18.370;2023-12-04T08:07:45;26.05;;;11.40;;
83471;SDS011;74051;47.120;18.370;2023-12-04T08:10:12;29.52;;;13.40;;
83471;SDS011;74051;47.120;18.370;2023-12-04T08:12:38;25.33;;;11.55;;
83471;SDS011;74051;47.120;18.370;2023-12-04T08:15:05;23.13;;;10.68;;
83471;SDS011;74051;47.120;18.370;2023-12-04T08:17:32;21.48;;;9.50;;
83471;SDS011;74051;47.120;18.370;2023-12-04T08:19:59;25.17;;;12.02;;
83471;SDS011;74051;47.120;18.370;2023-12-04T08:22:28;17.88;;;9.98;;
83471;SDS011;74051;47.120;18.370;2023-12-04T08:24:54;25.55;;;12.05;;
83471;SDS011;74051;47.120;18.370;2023-12-04T08:27:21;21.13;;;10.52;;
83471;SDS011;74051;47.120;18.370;2023-12-04T08:29:47;14.15;;;6.78;;
83471;SDS011;74051;47.120;18.370;2023-12-04T08:32:13;22.27;;;10.45;;
83471;SDS011;74051;47.120;18.370;2023-12-04T08:34:40;25.27;;;12.65;;
83471;SDS011;74051;47.120;18.370;2023-12-04T08:37:06;25.13;;;11.38;;
83471;SDS011;74051;47.120;18.370;2023-12-04T08:39:33;19.02;;;9.65;;
83471;SDS011;74051;47.120;18.370;2023-12-04T08:41:59;22.13;;;11.32;;
83471;SDS011;74051;47.120;18.370;2023-12-04T08:44:26;21.38;;;8.38;;
83471;SDS011;74051;47.120;18.370;2023-12-04T08:46:52;5.93;;;3.80;;
83471;SDS011;74051;47.120;18.370;2023-12-04T08:49:18;14.30;;;6.28;;
83471;SDS011;74051;47.120;18.370;2023-12-04T08:51:44;17.70;;;9.25;;
83471;SDS011;74051;47.120;18.370;2023-12-04T08:54:11;44.10;;;19.02;;
83471;SDS011;74051;47.120;18.370;2023-12-04T08:56:37;7.85;;;3.88;;
83471;SDS011;74051;47.120;18.370;2023-12-04T08:59:03;13.75;;;5.97;;
83471;SDS011;74051;47.120;18.370;2023-12-04T09:01:30;7.93;;;4.45;;
83471;SDS011;74051;47.120;18.370;2023-12-04T09:03:56;12.13;;;5.75;;
83471;SDS011;74051;47.120;18.370;2023-12-04T09:06:23;10.57;;;5.22;;
83471;SDS011;74051;47.120;18.370;2023-12-04T09:08:50;13.10;;;6.95;;
83471;SDS011;74051;47.120;18.370;2023-12-04T09:11:17;8.27;;;5.30;;
83471;SDS011;74051;47.120;18.370;2023-12-04T09:13:43;18.27;;;8.13;;
83471;SDS011;74051;47.120;18.370;2023-12-04T09:16:11;11.48;;;4.25;;
83471;SDS011;74051;47.120;18.370;2023-12-04T09:18:37;21.20;;;10.60;;
83471;SDS011;74051;47.120;18.370;2023-12-04T09:21:03;19.90;;;9.88;;
83471;SDS011;74051;47.120;18.370;2023-12-04T09:23:30;19.13;;;8.80;;
83471;SDS011;74051;47.120;18.370;2023-12-04T09:25:56;26.15;;;15.57;;
83471;SDS011;74051;47.120;18.370;2023-12-04T09:28:23;26.45;;;10.63;;
83471;SDS011;74051;47.120;18.370;2023-12-04T09:30:49;8.27;;;5.50;;
83471;SDS011;74051;47.120;18.370;2023-12-04T09:33:16;4.78;;;3.13;;
83471;SDS011;74051;47.120;18.370;2023-12-04T09:35:42;15.40;;;6.45;;
83471;SDS011;74051;47.120;18.370;2023-12-04T09:38:09;6.38;;;4.15;;
83471;SDS011;74051;47.120;18.370;2023-12-04T09:40:36;11.95;;;4.93;;
83471;SDS011;74051;47.120;18.370;2023-12-04T09:43:05;9.23;;;5.22;;
83471;SDS011;74051;47.120;18.370;2023-12-04T09:45:32;4.15;;;3.05;;
83471;SDS011;74051;47.120;18.370;2023-12-04T09:47:59;8.82;;;4.60;;
83471;SDS011;74051;47.120;18.370;2023-12-04T09:50:25;7.50;;;4.35;;
83471;SDS011;74051;47.120;18.370;2023-12-04T09:52:52;5.55;;;3.10;;
83471;SDS011;74051;47.120;18.370;2023-12-04T09:55:19;8.80;;;3.70;;
83471;SDS011;74051;47.120;18.370;2023-12-04T09:57:46;8.90;;;5.28;;
83471;SDS011;74051;47.120;18.370;2023-12-04T10:00:13;5.65;;;3.97;;
83471;SDS011;74051;47.120;18.370;2023-12-04T10:02:40;5.57;;;3.80;;
83471;SDS011;74051;47.120;18.370;2023-12-04T10:05:08;11.23;;;4.63;;
83471;SDS011;74051;47.120;18.370;2023-12-04T10:07:35;5.68;;;3.10;;
83471;SDS011;74051;47.120;18.370;2023-12-04T10:10:02;8.52;;;4.88;;
83471;SDS011;74051;47.120;18.370;2023-12-04T10:12:35;6.75;;;3.97;;
83471;SDS011;74051;47.120;18.370;2023-12-04T10:15:02;6.55;;;4.20;;
83471;SDS011;74051;47.120;18.370;2023-12-04T10:17:41;7.30;;;4.18;;
83471;SDS011;74051;47.120;18.370;2023-12-04T10:20:13;6.22;;;3.58;;
83471;SDS011;74051;47.120;18.370;2023-12-04T10:22:56;11.45;;;5.28;;
83471;SDS011;74051;47.120;18.370;2023-12-04T10:25:30;13.02;;;5.57;;
83471;SDS011;74051;47.120;18.370;2023-12-04T10:28:10;5.18;;;3.35;;
83471;SDS011;74051;47.120;18.370;2023-12-04T10:30:37;6.50;;;3.95;;
83471;SDS011;74051;47.120;18.370;2023-12-04T10:33:04;6.97;;;3.17;;
83471;SDS011;74051;47.120;18.370;2023-12-04T10:35:35;6.53;;;4.63;;
83471;SDS011;74051;47.120;18.370;2023-12-04T10:38:05;6.97;;;3.22;;
83471;SDS011;74051;47.120;18.370;2023-12-04T10:40:33;12.43;;;5.70;;
83471;SDS011;74051;47.120;18.370;2023-12-04T10:43:11;9.38;;;5.00;;
83471;SDS011;74051;47.120;18.370;2023-12-04T10:45:44;8.10;;;4.43;;
83471;SDS011;74051;47.120;18.370;2023-12-04T10:48:12;3.47;;;1.90;;
83471;SDS011;74051;47.120;18.370;2023-12-04T10:50:41;5.97;;;3.60;;
83471;SDS011;74051;47.120;18.370;2023-12-04T10:53:12;11.20;;;5.70;;
83471;SDS011;74051;47.120;18.370;2023-12-04T10:55:40;8.02;;;4.38;;
83471;SDS011;74051;47.120;18.370;2023-12-04T10:58:09;13.13;;;6.72;;
83471;SDS011;74051;47.120;18.370;2023-12-04T11:00:42;13.32;;;5.20;;
83471;SDS011;74051;47.120;18.370;2023-12-04T11:03:58;9.25;;;4.88;;
83471;SDS011;74051;47.120;18.370;2023-12-04T11:06:08;6.72;;;3.30;;
83471;SDS011;74051;47.120;18.370;2023-12-04T11:08:37;6.28;;;3.53;;
83471;SDS011;74051;47.120;18.370;2023-12-04T11:11:18;5.25;;;3.58;;
83471;SDS011;74051;47.120;18.370;2023-12-04T11:13:52;8.90;;;5.00;;
83471;SDS011;74051;47.120;18.370;2023-12-04T11:16:38;6.60;;;3.83;;
83471;SDS011;74051;47.120;18.370;2023-12-04T11:19:14;6.78;;;3.95;;
83471;SDS011;74051;47.120;18.370;2023-12-04T11:21:46;4.38;;;3.08;;
83471;SDS011;74051;47.120;18.370;2023-12-04T11:24:13;7.50;;;3.90;;
83471;SDS011;74051;47.120;18.370;2023-12-04T11:26:41;7.47;;;3.72;;
83471;SDS011;74051;47.120;18.370;2023-12-04T11:29:08;7.32;;;4.40;;
83471;SDS011;74051;47.120;18.370;2023-12-04T11:31:37;6.55;;;4.32;;
83471;SDS011;74051;47.120;18.370;2023-12-04T11:34:04;5.13;;;3.33;;
83471;SDS011;74051;47.120;18.370;2023-12-04T11:36:31;9.13;;;3.78;;
83471;SDS011;74051;47.120;18.370;2023-12-04T11:38:57;9.18;;;4.55;;
83471;SDS011;74051;47.120;18.370;2023-12-04T11:41:26;12.18;;;4.47;;
83471;SDS011;74051;47.120;18.370;2023-12-04T11:43:54;6.15;;;3.42;;
83471;SDS011;74051;47.120;18.370;2023-12-04T11:46:22;5.05;;;3.05;;
83471;SDS011;74051;47.120;18.370;2023-12-04T11:48:50;8.05;;;3.72;;
83471;SDS011;74051;47.120;18.370;2023-12-04T11:54:09;10.02;;;4.53;;
83471;SDS011;74051;47.120;18.370;2023-12-04T11:56:59;3.80;;;2.30;;
83471;SDS011;74051;47.120;18.370;2023-12-04T11:59:44;7.43;;;4.13;;
83471;SDS011;74051;47.120;18.370;2023-12-04T12:02:11;6.45;;;3.80;;
83471;SDS011;74051;47.120;18.370;2023-12-04T12:04:37;10.98;;;4.97;;
83471;SDS011;74051;47.120;18.370;2023-12-04T12:07:05;8.48;;;4.80;;
83471;SDS011;74051;47.120;18.370;2023-12-04T12:09:32;8.15;;;4.85;;
83471;SDS011;74051;47.120;18.370;2023-12-04T12:12:02;5.38;;;3.05;;
83471;SDS011;74051;47.120;18.370;2023-12-04T12:14:30;5.18;;;3.05;;
83471;SDS011;74051;47.120;18.370;2023-12-04T12:17:00;7.70;;;3.95;;
83471;SDS011;74051;47.120;18.370;2023-12-04T12:19:30;7.63;;;4.22;;
83471;SDS011;74051;47.120;18.370;2023-12-04T12:21:56;7.30;;;4.43;;
83471;SDS011;74051;47.120;18.370;2023-12-04T12:24:23;5.85;;;3.33;;
83471;SDS011;74051;47.120;18.370;2023-12-04T12:26:51;18.08;;;7.93;;
83471;SDS011;74051;47.120;18.370;2023-12-04T12:29:17;9.10;;;4.28;;
83471;SDS011;74051;47.120;18.370;2023-12-04T12:31:44;43.40;;;15.85;;
83471;SDS011;74051;47.120;18.370;2023-12-04T12:34:13;12.48;;;6.60;;
83471;SDS011;74051;47.120;18.370;2023-12-04T12:36:40;21.70;;;8.85;;
83471;SDS011;74051;47.120;18.370;2023-12-04T12:39:06;57.28;;;19.42;;
83471;SDS011;74051;47.120;18.370;2023-12-04T12:41:34;30.65;;;13.52;;
83471;SDS011;74051;47.120;18.370;2023-12-04T12:44:01;8.90;;;5.07;;
83471;SDS011;74051;47.120;18.370;2023-12-04T12:46:29;9.90;;;4.80;;
83471;SDS011;74051;47.120;18.370;2023-12-04T12:48:55;7.80;;;4.82;;
83471;SDS011;74051;47.120;18.370;2023-12-04T12:51:23;7.82;;;4.90;;
83471;SDS011;74051;47.120;18.370;2023-12-04T12:53:50;7.65;;;4.32;;
83471;SDS011;74051;47.120;18.370;2023-12-04T12:56:26;5.20;;;2.50;;
83471;SDS011;74051;47.120;18.370;2023-12-04T12:58:53;10.35;;;4.82;;
83471;SDS011;74051;47.120;18.370;2023-12-04T13:01:22;10.48;;;3.75;;
83471;SDS011;74051;47.120;18.370;2023-12-04T13:03:51;6.63;;;3.58;;
83471;SDS011;74051;47.120;18.370;2023-12-04T13:06:18;6.05;;;3.55;;
83471;SDS011;74051;47.120;18.370;2023-12-04T13:08:45;8.30;;;3.97;;
83471;SDS011;74051;47.120;18.370;2023-12-04T13:11:11;9.82;;;4.32;;
83471;SDS011;74051;47.120;18.370;2023-12-04T13:13:37;9.20;;;4.18;;
83471;SDS011;74051;47.120;18.370;2023-12-04T13:16:04;11.30;;;5.22;;
83471;SDS011;74051;47.120;18.370;2023-12-04T13:18:32;7.80;;;3.83;;
83471;SDS011;74051;47.120;18.370;2023-12-04T13:21:01;11.15;;;4.93;;
83471;SDS011;74051;47.120;18.370;2023-12-04T13:23:28;8.65;;;4.22;;
83471;SDS011;74051;47.120;18.370;2023-12-04T13:25:54;8.25;;;4.50;;
83471;SDS011;74051;47.120;18.370;2023-12-04T13:28:20;16.95;;;7.55;;
83471;SDS011;74051;47.120;18.370;2023-12-04T13:30:47;15.25;;;7.78;;
83471;SDS011;74051;47.120;18.370;2023-12-04T13:33:14;12.20;;;5.60;;
83471;SDS011;74051;47.120;18.370;2023-12-04T13:35:40;12.52;;;4.20;;
83471;SDS011;74051;47.120;18.370;2023-12-04T13:38:06;7.45;;;3.92;;
83471;SDS011;74051;47.120;18.370;2023-12-04T13:40:39;7.15;;;4.50;;
83471;SDS011;74051;47.120;18.370;2023-12-04T13:43:06;16.48;;;4.07;;
83471;SDS011;74051;47.120;18.370;2023-12-04T13:45:51;10.85;;;6.80;;
83471;SDS011;74051;47.120;18.370;2023-12-04T13:48:18;9.13;;;4.80;;
83471;SDS011;74051;47.120;18.370;2023-12-04T13:50:47;6.82;;;4.80;;
83471;SDS011;74051;47.120;18.370;2023-12-04T13:53:16;11.07;;;4.32;;
83471;SDS011;74051;47.120;18.370;2023-12-04T13:55:47;13.18;;;6.03;;
83471;SDS011;74051;47.120;18.370;2023-12-04T13:58:34;14.52;;;6.25;;
83471;SDS011;74051;47.120;18.370;2023-12-04T14:01:05;12.02;;;5.85;;
83471;SDS011;74051;47.120;18.370;2023-12-04T14:03:44;5.28;;;2.72;;
83471;SDS011;74051;47.120;18.370;2023-12-04T14:06:11;6.63;;;3.65;;
83471;SDS011;74051;47.120;18.370;2023-12-04T14:08:37;11.32;;;4.63;;
83471;SDS011;74051;47.120;18.370;2023-12-04T14:11:04;7.15;;;4.07;;
83471;SDS011;74051;47.120;18.370;2023-12-04T14:13:33;31.75;;;16.25;;
83471;SDS011;74051;47.120;18.370;2023-12-04T14:16:01;90.38;;;33.92;;
83471;SDS011;74051;47.120;18.370;2023-12-04T14:18:28;89.20;;;40.78;;
83471;SDS011;74051;47.120;18.370;2023-12-04T14:20:56;23.00;;;9.13;;
83471;SDS011;74051;47.120;18.370;2023-12-04T14:23:24;57.33;;;24.98;;
83471;SDS011;74051;47.120;18.370;2023-12-04T14:25:50;35.13;;;14.85;;